Time;durP1;ratioP1;P1;durP2;ratioP2;P2;SDS_P1;SDS_P2;PMS_P1;PMS_P2;Temp;Humidity;BMP_temperature;BMP_pressure;BME280_temperature;BME280_humidity;BME280_pressure;Samples;Min_cycle;Max_cycle;Signal;HPM_P1;HPM_P2
2021/09/17 00:00:51;;;;;;;;;;;;;;;12.84;100.00;98994.63;5053647;28;20304;-80
2021/09/17 00:03:18;;;;;;;;;;;;;;;12.90;100.00;98984.47;5053627;28;19925;-80
2021/09/17 00:05:45;;;;;;;;;;;;;;;12.92;100.00;98984.03;5035609;28;19946;-80
2021/09/17 00:08:12;;;;;;;;;;;;;;;13.22;100.00;98984.44;5026322;28;19925;-80
2021/09/17 00:10:41;;;;;;;;;;;;;;;13.37;100.00;98979.19;5033091;28;19932;-80
2021/09/17 00:13:08;;;;;;;;;;;;;;;13.55;100.00;98985.06;5042189;28;19948;-80
2021/09/17 00:15:35;;;;;;;;;;;;;;;13.57;100.00;98979.81;5023058;28;19928;-80
2021/09/17 00:18:02;;;;;;;;;;;;;;;13.59;100.00;98971.72;5033263;28;19928;-80
2021/09/17 00:20:29;;;;;;;;;;;;;;;13.65;100.00;98967.13;5019836;28;19925;-80
2021/09/17 00:22:56;;;;;;;;;;;;;;;13.73;100.00;98962.88;5023758;28;20060;-80
2021/09/17 00:25:24;;;;;;;;;;;;;;;13.81;100.00;98959.41;5045904;28;19929;-81
2021/09/17 00:27:55;;;;;;;;;;;;;;;13.84;100.00;98952.13;5056866;28;20023;-81
2021/09/17 00:30:25;;;;;;;;;;;;;;;13.89;100.00;98957.94;5057207;28;19932;-81
2021/09/17 00:32:52;;;;;;;;;;;;;;;13.84;100.00;98952.13;5039347;28;19928;-80
2021/09/17 00:35:19;;;;;;;;;;;;;;;13.78;100.00;98942.69;5019650;28;19968;-80
2021/09/17 00:37:46;;;;;;;;;;;;;;;13.78;100.00;98942.69;5051671;28;19925;-81
2021/09/17 00:40:13;;;;;;;;;;;;;;;13.79;100.00;98941.44;5056916;28;19924;-80
2021/09/17 00:42:40;;;;;;;;;;;;;;;13.42;100.00;98942.16;5039003;28;19967;-81
2021/09/17 00:45:09;;;;;;;;;;;;;;;13.22;100.00;98941.53;5038600;28;20265;-81
2021/09/17 00:47:36;;;;;;;;;;;;;;;13.57;100.00;98943.31;5072255;28;20010;-81
2021/09/17 00:50:04;;;;;;;;;;;;;;;13.71;100.00;98940.06;5022717;28;19924;-81
2021/09/17 00:52:32;;;;;;;;;;;;;;;13.68;100.00;98938.94;5039264;28;20261;-81
2021/09/17 00:54:59;;;;;;;;;;;;;;;13.71;100.00;98931.66;5054016;28;20289;-81
2021/09/17 00:57:26;;;;;;;;;;;;;;;13.68;100.00;98930.53;5056230;28;19929;-81
2021/09/17 00:59:53;;;;;;;;;;;;;;;13.47;100.00;98921.94;5038410;28;20011;-81
2021/09/17 01:02:20;;;;;;;;;;;;;;;13.48;100.00;98929.16;5056169;28;19932;-81
2021/09/17 01:04:47;;;;;;;;;;;;;;;13.57;100.00;98926.47;5038433;28;20019;-81
2021/09/17 01:07:14;;;;;;;;;;;;;;;13.54;100.00;98918.94;5071201;28;19925;-81
2021/09/17 01:09:42;;;;;;;;;;;;;;;13.56;100.00;98922.09;5038974;28;19925;-81
2021/09/17 01:12:10;;;;;;;;;;;;;;;13.53;100.00;98914.56;5072018;28;19974;-81
2021/09/17 01:14:37;;;;;;;;;;;;;;;13.49;100.00;98914.69;5056171;28;20017;-81
2021/09/17 01:17:05;;;;;;;;;;;;;;;13.42;100.00;98916.91;5038520;28;20455;-81
2021/09/17 01:19:33;;;;;;;;;;;;;;;13.01;100.00;98908.50;5038478;28;19960;-81
2021/09/17 01:22:05;;;;;;;;;;;;;;;13.29;100.00;98916.06;5021477;28;19931;-81
2021/09/17 01:24:32;;;;;;;;;;;;;;;13.27;100.00;98902.50;5038222;28;19924;-82
2021/09/17 01:26:59;;;;;;;;;;;;;;;13.31;100.00;98903.19;5063382;28;19925;-81
2021/09/17 01:29:26;;;;;;;;;;;;;;;13.31;100.00;98894.78;5037828;28;19979;-81
2021/09/17 01:31:54;;;;;;;;;;;;;;;12.95;100.00;98902.59;5056088;28;20402;-81
2021/09/17 01:34:23;;;;;;;;;;;;;;;12.83;100.00;98891.34;5063095;28;19925;-81
2021/09/17 01:36:50;;;;;;;;;;;;;;;13.14;100.00;98896.06;5070706;28;19924;-81
2021/09/17 01:39:18;;;;;;;;;;;;;;;13.26;100.00;98897.31;5054169;28;19929;-81
2021/09/17 01:41:46;;;;;;;;;;;;;;;13.36;100.00;98885.78;5054165;28;20265;-81
2021/09/17 01:44:13;;;;;;;;;;;;;;;13.37;100.00;98883.78;5070806;28;20303;-81
2021/09/17 01:46:40;;;;;;;;;;;;;;;13.24;100.00;98886.56;5055732;28;19979;-81
2021/09/17 01:49:08;;;;;;;;;;;;;;;13.13;100.00;98888.09;5083398;28;19964;-81
2021/09/17 01:51:36;;;;;;;;;;;;;;;13.08;100.00;98886.63;5021109;28;19947;-81
2021/09/17 01:54:04;;;;;;;;;;;;;;;13.21;100.00;98883.88;5079620;28;19931;-81
2021/09/17 01:56:34;;;;;;;;;;;;;;;13.17;100.00;98885.97;5078306;28;19950;-81
2021/09/17 01:59:02;;;;;;;;;;;;;;;13.13;100.00;98874.06;5074150;28;19924;-81
2021/09/17 02:01:41;;;;;;;;;;;;;;;13.35;100.00;98881.41;5059448;28;19924;-81
2021/09/17 02:04:08;;;;;;;;;;;;;;;13.45;100.00;98874.69;5054763;28;20004;-81
2021/09/17 02:06:35;;;;;;;;;;;;;;;13.30;100.00;98865.13;5054559;28;19925;-81
2021/09/17 02:09:03;;;;;;;;;;;;;;;13.26;100.00;98872.06;5100771;28;19929;-80
2021/09/17 02:11:30;;;;;;;;;;;;;;;13.46;100.00;98873.47;5064331;28;19924;-80
2021/09/17 02:14:01;;;;;;;;;;;;;;;13.61;100.00;98868.19;5056509;28;20486;-80
2021/09/17 02:16:28;;;;;;;;;;;;;;;13.66;100.00;98862.03;5066511;28;19928;-78
2021/09/17 02:18:57;;;;;;;;;;;;;;;13.68;100.00;98859.53;5057927;28;20388;-81
2021/09/17 02:21:24;;;;;;;;;;;;;;;13.70;100.00;98868.31;5086821;28;19924;-81
2021/09/17 02:23:51;;;;;;;;;;;;;;;13.70;100.00;98862.69;5054727;28;19925;-81
2021/09/17 02:26:18;;;;;;;;;;;;;;;13.44;100.00;98866.72;5054228;28;20396;-81
2021/09/17 02:28:46;;;;;;;;;;;;;;;13.43;100.00;98859.53;5041884;28;19931;-81
2021/09/17 02:31:13;;;;;;;;;;;;;;;13.46;100.00;98864.25;5054549;28;20381;-81
2021/09/17 02:33:40;;;;;;;;;;;;;;;13.69;100.00;98855.53;5081850;28;20433;-81
2021/09/17 02:36:07;;;;;;;;;;;;;;;13.70;100.00;98852.25;5064575;28;20311;-81
2021/09/17 02:38:34;;;;;;;;;;;;;;;13.71;100.00;98847.41;5081991;28;20022;-80
2021/09/17 02:41:02;;;;;;;;;;;;;;;13.64;100.00;98839.22;5054268;28;19925;-80
2021/09/17 02:43:29;;;;;;;;;;;;;;;13.62;100.00;98844.50;5054401;28;20008;-80
2021/09/17 02:45:58;;;;;;;;;;;;;;;13.72;100.00;98837.78;5053439;28;19924;-80
2021/09/17 02:48:26;;;;;;;;;;;;;;;13.62;100.00;98836.06;5067021;28;19925;-81
2021/09/17 02:50:53;;;;;;;;;;;;;;;13.76;100.00;98825.19;5036782;28;19925;-81
2021/09/17 02:53:20;;;;;;;;;;;;;;;13.73;100.00;98828.91;5036604;28;19933;-81
2021/09/17 02:55:47;;;;;;;;;;;;;;;13.77;100.00;98840.00;5054472;28;19936;-80
2021/09/17 02:58:15;;;;;;;;;;;;;;;13.66;100.00;98833.97;5054137;28;19924;-80
2021/09/17 03:00:42;;;;;;;;;;;;;;;13.54;100.00;98831.94;5062090;28;19942;-80
2021/09/17 03:03:09;;;;;;;;;;;;;;;13.39;100.00;98831.56;5059250;28;20445;-80
2021/09/17 03:05:36;;;;;;;;;;;;;;;13.40;100.00;98832.38;5073979;28;19928;-80
2021/09/17 03:08:03;;;;;;;;;;;;;;;13.51;100.00;98821.59;5062145;28;19928;-81
2021/09/17 03:10:30;;;;;;;;;;;;;;;13.57;100.00;98814.19;5036323;28;19929;-81
2021/09/17 03:12:59;;;;;;;;;;;;;;;13.66;100.00;98823.50;5052803;28;20426;-80
2021/09/17 03:15:26;;;;;;;;;;;;;;;13.74;100.00;98818.44;5039365;28;20360;-81
2021/09/17 03:17:53;;;;;;;;;;;;;;;13.72;100.00;98823.75;5064309;28;19925;-81
2021/09/17 03:20:20;;;;;;;;;;;;;;;13.54;100.00;98820.72;5037407;28;19929;-80
2021/09/17 03:22:48;;;;;;;;;;;;;;;13.75;100.00;98814.41;5065785;28;19929;-81
2021/09/17 03:25:15;;;;;;;;;;;;;;;13.45;100.00;98817.78;5066638;28;19929;-80
2021/09/17 03:27:43;;;;;;;;;;;;;;;13.20;100.00;98815.75;5073894;28;19928;-80
2021/09/17 03:30:11;;;;;;;;;;;;;;;13.55;100.00;98823.06;5061236;28;20007;-81
2021/09/17 03:32:38;;;;;;;;;;;;;;;13.68;100.00;98814.63;5066764;28;19929;-81
2021/09/17 03:35:05;;;;;;;;;;;;;;;13.76;100.00;98807.53;5046463;28;20019;-81
2021/09/17 03:37:32;;;;;;;;;;;;;;;13.36;100.00;98810.03;5057514;28;20031;-81
2021/09/17 03:40:00;;;;;;;;;;;;;;;13.55;100.00;98805.44;5052586;28;19932;-80
2021/09/17 03:42:28;;;;;;;;;;;;;;;13.66;100.00;98801.03;5053794;28;19924;-81
2021/09/17 03:44:56;;;;;;;;;;;;;;;13.72;100.00;98795.66;5086295;28;19924;-81
2021/09/17 03:47:24;;;;;;;;;;;;;;;13.84;100.00;98792.03;5036377;28;19932;-81
2021/09/17 03:49:51;;;;;;;;;;;;;;;13.36;100.00;98795.22;5057106;28;19924;-80
2021/09/17 03:52:18;;;;;;;;;;;;;;;13.65;100.00;98781.84;5065004;28;20365;-81
2021/09/17 03:54:45;;;;;;;;;;;;;;;13.26;100.00;98783.09;5062468;28;19924;-80
2021/09/17 03:57:12;;;;;;;;;;;;;;;13.21;100.00;98774.47;5093266;28;19925;-81
2021/09/17 03:59:40;;;;;;;;;;;;;;;13.62;100.00;98769.50;5063755;28;19932;-81
2021/09/17 04:02:07;;;;;;;;;;;;;;;13.77;100.00;98772.59;5039395;28;20395;-80
2021/09/17 04:04:34;;;;;;;;;;;;;;;13.92;100.00;98768.09;5040163;28;19925;-81
2021/09/17 04:07:01;;;;;;;;;;;;;;;14.01;100.00;98763.34;5039563;28;19979;-81
2021/09/17 04:09:28;;;;;;;;;;;;;;;14.15;100.00;98770.50;5049373;28;19936;-81
2021/09/17 04:11:55;;;;;;;;;;;;;;;14.11;100.00;98769.84;5043594;28;19925;-81
2021/09/17 04:14:22;;;;;;;;;;;;;;;14.12;100.00;98771.41;5089848;28;20050;-81
2021/09/17 04:16:50;;;;;;;;;;;;;;;14.06;100.00;98774.03;5039505;28;19925;-80
2021/09/17 04:19:16;;;;;;;;;;;;;;;13.54;100.00;98773.00;5071146;28;19978;-80
2021/09/17 04:21:43;;;;;;;;;;;;;;;13.45;100.00;98784.13;5057795;28;19925;-80
2021/09/17 04:24:10;;;;;;;;;;;;;;;13.58;100.00;98776.47;5039202;28;19972;-80
2021/09/17 04:26:38;;;;;;;;;;;;;;;13.73;100.00;98780.38;5039354;28;19925;-81
2021/09/17 04:29:05;;;;;;;;;;;;;;;13.68;100.00;98772.50;5042824;28;19930;-81
2021/09/17 04:31:32;;;;;;;;;;;;;;;13.72;100.00;98771.16;5067852;28;19924;-81
2021/09/17 04:33:59;;;;;;;;;;;;;;;13.83;100.00;98770.81;5072969;28;19925;-81
2021/09/17 04:36:26;;;;;;;;;;;;;;;13.68;100.00;98775.31;5055721;28;19925;-81
2021/09/17 04:38:53;;;;;;;;;;;;;;;13.64;100.00;98772.66;5055905;28;19925;-81
2021/09/17 04:41:20;;;;;;;;;;;;;;;13.74;100.00;98773.50;5060740;28;19971;-81
2021/09/17 04:43:47;;;;;;;;;;;;;;;13.91;100.00;98777.75;5056301;28;20011;-81
2021/09/17 04:46:15;;;;;;;;;;;;;;;14.04;100.00;98765.25;5053676;28;19925;-80
2021/09/17 04:48:42;;;;;;;;;;;;;;;14.08;100.00;98765.13;5070380;28;20530;-81
2021/09/17 04:51:09;;;;;;;;;;;;;;;14.06;100.00;98767.59;5069457;28;19966;-81
2021/09/17 04:53:36;;;;;;;;;;;;;;;13.95;100.00;98761.59;5054129;28;19925;-81
2021/09/17 04:56:03;;;;;;;;;;;;;;;13.93;100.00;98764.81;5066959;28;19954;-81
2021/09/17 04:58:38;;;;;;;;;;;;;;;13.22;100.00;98764.78;5060694;28;19928;-81
2021/09/17 05:01:05;;;;;;;;;;;;;;;13.66;100.00;98761.72;5109219;28;20306;-81
2021/09/17 05:03:32;;;;;;;;;;;;;;;13.27;100.00;98750.97;5060283;28;19925;-81
2021/09/17 05:05:59;;;;;;;;;;;;;;;13.34;100.00;98750.78;5072036;28;20276;-81
2021/09/17 05:08:27;;;;;;;;;;;;;;;13.56;100.00;98748.03;5056588;28;20019;-81
2021/09/17 05:10:54;;;;;;;;;;;;;;;13.65;100.00;98751.75;5055418;28;19947;-81
2021/09/17 05:13:21;;;;;;;;;;;;;;;13.76;100.00;98748.59;5056320;28;20389;-81
2021/09/17 05:15:48;;;;;;;;;;;;;;;13.87;100.00;98743.41;5038433;28;19935;-81
2021/09/17 05:18:15;;;;;;;;;;;;;;;13.78;100.00;98746.88;5056215;28;19925;-81
2021/09/17 05:20:43;;;;;;;;;;;;;;;13.89;100.00;98740.91;5060147;28;20401;-81
2021/09/17 05:23:09;;;;;;;;;;;;;;;14.02;100.00;98744.47;5081817;28;19933;-81
2021/09/17 05:25:36;;;;;;;;;;;;;;;13.98;100.00;98749.44;5073665;28;19925;-81
2021/09/17 05:28:04;;;;;;;;;;;;;;;13.98;100.00;98752.25;5100263;28;19952;-81
2021/09/17 05:30:31;;;;;;;;;;;;;;;13.73;100.00;98750.28;5086214;28;19928;-80
2021/09/17 05:32:58;;;;;;;;;;;;;;;13.52;100.00;98755.81;5101961;28;19929;-80
2021/09/17 05:35:26;;;;;;;;;;;;;;;13.52;100.00;98751.00;5088407;28;20290;-80
2021/09/17 05:37:53;;;;;;;;;;;;;;;13.11;100.00;98753.13;5052020;28;19932;-80
2021/09/17 05:40:20;;;;;;;;;;;;;;;13.21;100.00;98763.25;5062609;28;19932;-80
2021/09/17 05:42:48;;;;;;;;;;;;;;;13.42;100.00;98752.09;5024138;28;20258;-81
2021/09/17 05:45:15;;;;;;;;;;;;;;;13.46;100.00;98752.78;5073583;28;19994;-81
2021/09/17 05:47:42;;;;;;;;;;;;;;;13.55;100.00;98755.69;5055035;28;20533;-80
2021/09/17 05:50:10;;;;;;;;;;;;;;;13.60;100.00;98759.97;5058667;28;19970;-81
2021/09/17 05:52:38;;;;;;;;;;;;;;;13.69;100.00;98762.88;5063223;28;19931;-81
2021/09/17 05:55:06;;;;;;;;;;;;;;;13.63;100.00;98750.63;5055406;28;20406;-81
2021/09/17 05:57:33;;;;;;;;;;;;;;;13.64;100.00;98760.63;5071366;28;20356;-81
2021/09/17 06:00:03;;;;;;;;;;;;;;;13.79;100.00;98756.09;5068139;28;19928;-81
2021/09/17 06:02:37;;;;;;;;;;;;;;;13.70;100.00;98750.41;5053866;28;19931;-81
2021/09/17 06:05:05;;;;;;;;;;;;;;;13.77;100.00;98758.56;5052282;28;19960;-81
2021/09/17 06:07:31;;;;;;;;;;;;;;;13.36;100.00;98741.91;5054225;28;20434;-80
2021/09/17 06:10:04;;;;;;;;;;;;;;;13.35;100.00;98745.94;5036554;28;19925;-80
2021/09/17 06:12:31;;;;;;;;;;;;;;;13.45;100.00;98742.03;5053836;28;19928;-82
2021/09/17 06:14:58;;;;;;;;;;;;;;;13.52;100.00;98744.59;5055279;28;20023;-81
2021/09/17 06:17:26;;;;;;;;;;;;;;;13.19;100.00;98752.44;5054564;28;19925;-81
2021/09/17 06:19:53;;;;;;;;;;;;;;;13.49;100.00;98739.88;5054721;28;19925;-81
2021/09/17 06:22:20;;;;;;;;;;;;;;;13.49;100.00;98745.47;5091096;28;19924;-79
2021/09/17 06:24:47;;;;;;;;;;;;;;;13.78;100.00;98751.72;5058035;28;20422;-82
2021/09/17 06:27:14;;;;;;;;;;;;;;;13.94;100.00;98748.75;5036100;28;19931;-84
2021/09/17 06:29:41;;;;;;;;;;;;;;;14.01;100.00;98751.34;5053425;28;19931;-85
2021/09/17 06:32:09;;;;;;;;;;;;;;;13.95;100.00;98750.34;5059897;28;19968;-86
2021/09/17 06:34:36;;;;;;;;;;;;;;;14.18;100.00;98758.34;5053274;28;20016;-85
2021/09/17 06:37:03;;;;;;;;;;;;;;;14.28;100.00;98751.63;5053201;28;20277;-84
2021/09/17 06:39:32;;;;;;;;;;;;;;;14.12;100.00;98749.72;5054483;28;19929;-85
2021/09/17 06:42:00;;;;;;;;;;;;;;;14.07;100.00;98752.34;5070049;28;20015;-85
2021/09/17 06:44:28;;;;;;;;;;;;;;;13.97;100.00;98756.28;5037039;28;20058;-83
2021/09/17 06:46:56;;;;;;;;;;;;;;;14.24;100.00;98759.38;5086736;28;19931;-83
2021/09/17 06:49:23;;;;;;;;;;;;;;;14.42;100.00;98759.53;5054039;28;20297;-78
2021/09/17 06:51:50;;;;;;;;;;;;;;;14.52;100.00;98756.31;5054118;28;20330;-77
2021/09/17 06:54:17;;;;;;;;;;;;;;;14.63;100.00;98753.13;5072675;28;20330;-77
2021/09/17 06:56:44;;;;;;;;;;;;;;;14.43;100.00;98752.69;5068001;28;19929;-77
2021/09/17 06:59:11;;;;;;;;;;;;;;;14.34;100.00;98758.22;5065941;28;19971;-78
2021/09/17 07:01:38;;;;;;;;;;;;;;;14.22;100.00;98753.41;5066138;28;19925;-77
2021/09/17 07:04:07;;;;;;;;;;;;;;;14.56;100.00;98761.81;5053737;28;19928;-77
2021/09/17 07:06:37;;;;;;;;;;;;;;;14.24;100.00;98751.72;5060603;28;20011;-79
2021/09/17 07:09:04;;;;;;;;;;;;;;;14.28;100.00;98751.63;5068089;28;19925;-78
2021/09/17 07:11:32;;;;;;;;;;;;;;;14.02;100.00;98755.72;5053143;28;20381;-77
2021/09/17 07:13:59;;;;;;;;;;;;;;;14.19;100.00;98759.94;5053432;28;20434;-78
2021/09/17 07:16:27;;;;;;;;;;;;;;;14.14;100.00;98752.09;5053388;28;20292;-78
2021/09/17 07:18:55;;;;;;;;;;;;;;;14.55;100.00;98765.09;5051603;28;19924;-78
2021/09/17 07:21:21;;;;;;;;;;;;;;;14.52;100.00;98761.19;5085253;28;19925;-77
2021/09/17 07:23:48;;;;;;;;;;;;;;;14.27;100.00;98752.84;5055051;28;20364;-78
2021/09/17 07:26:16;;;;;;;;;;;;;;;14.82;100.00;98754.81;5052914;28;19925;-78
2021/09/17 07:28:43;;;;;;;;;;;;;;;14.69;100.00;98750.53;5051934;28;20560;-77
2021/09/17 07:31:11;;;;;;;;;;;;;;;15.05;100.00;98754.34;5052966;28;20388;-78
2021/09/17 07:33:39;;;;;;;;;;;;;;;14.52;100.00;98752.75;5053113;28;20376;-78
2021/09/17 07:36:06;;;;;;;;;;;;;;;15.68;100.00;98756.66;5053986;28;19932;-78
2021/09/17 07:38:33;;;;;;;;;;;;;;;15.82;100.00;98751.22;5052758;28;20426;-78
2021/09/17 07:41:00;;;;;;;;;;;;;;;16.51;100.00;98742.22;5081463;28;19928;-78
2021/09/17 07:43:27;;;;;;;;;;;;;;;17.02;100.00;98751.56;5071907;28;20265;-78
2021/09/17 07:45:54;;;;;;;;;;;;;;;17.72;100.00;98742.53;5063332;28;20015;-78
2021/09/17 07:48:21;;;;;;;;;;;;;;;18.38;100.00;98735.50;5091845;28;20335;-79
2021/09/17 07:50:50;;;;;;;;;;;;;;;18.46;100.00;98733.88;5051099;28;19936;-78
2021/09/17 07:53:16;;;;;;;;;;;;;;;18.41;100.00;98737.34;5052521;28;19929;-78
2021/09/17 07:55:44;;;;;;;;;;;;;;;17.81;100.00;98731.16;5052617;28;19932;-79
2021/09/17 07:58:13;;;;;;;;;;;;;;;18.04;100.00;98726.78;5051582;28;19967;-78
2021/09/17 08:00:40;;;;;;;;;;;;;;;18.33;100.00;98736.13;5052700;28;19925;-78
2021/09/17 08:03:07;;;;;;;;;;;;;;;18.63;100.00;98732.13;5051480;28;20011;-78
2021/09/17 08:05:34;;;;;;;;;;;;;;;18.81;100.00;98737.59;5051287;28;20277;-78
2021/09/17 08:08:01;;;;;;;;;;;;;;;18.37;100.00;98730.28;5030960;28;20385;-78
2021/09/17 08:10:29;;;;;;;;;;;;;;;18.54;100.00;98745.59;5048911;28;20034;-78
2021/09/17 08:12:56;;;;;;;;;;;;;;;18.46;100.00;98741.56;5051383;28;20395;-78
2021/09/17 08:15:23;;;;;;;;;;;;;;;16.87;100.00;98750.66;5033200;28;20351;-78
2021/09/17 08:17:49;;;;;;;;;;;;;;;17.16;100.00;98748.81;5052340;28;19975;-78
2021/09/17 08:20:17;;;;;;;;;;;;;;;17.24;100.00;98746.44;5052549;28;19925;-77
2021/09/17 08:22:44;;;;;;;;;;;;;;;17.69;100.00;98749.13;5052439;28;19971;-78
2021/09/17 08:25:11;;;;;;;;;;;;;;;17.77;100.00;98750.31;5052531;28;19956;-77
2021/09/17 08:27:39;;;;;;;;;;;;;;;18.00;100.00;98758.03;5052364;28;19968;-77
2021/09/17 08:30:07;;;;;;;;;;;;;;;16.99;100.00;98758.13;5084547;28;20043;-77
2021/09/17 08:32:52;;;;;;;;;;;;;;;17.54;100.00;98759.53;5039968;28;19968;-77
2021/09/17 08:35:39;;;;;;;;;;;;;;;16.98;100.00;98770.69;5055067;28;19929;-77
2021/09/17 08:38:26;;;;;;;;;;;;;;;17.31;100.00;98757.44;5054897;28;19925;-78
2021/09/17 08:40:56;;;;;;;;;;;;;;;17.91;100.00;98755.28;5068531;28;20018;-77
2021/09/17 08:43:24;;;;;;;;;;;;;;;18.16;100.00;98754.78;5074717;28;19925;-78
2021/09/17 08:45:52;;;;;;;;;;;;;;;18.11;100.00;98757.50;5076106;28;19956;-78
2021/09/17 08:48:28;;;;;;;;;;;;;;;18.45;100.00;98757.75;5092101;28;20019;-77
2021/09/17 08:50:58;;;;;;;;;;;;;;;17.96;100.00;98751.81;5075857;28;19928;-77
2021/09/17 08:53:25;;;;;;;;;;;;;;;18.28;100.00;98745.25;5074588;28;20007;-77
2021/09/17 08:55:53;;;;;;;;;;;;;;;18.06;100.00;98750.47;5076000;28;20342;-77
2021/09/17 08:58:20;;;;;;;;;;;;;;;18.41;100.00;98754.31;5075668;28;19978;-78
2021/09/17 09:00:47;;;;;;;;;;;;;;;18.31;100.00;98761.28;5075796;28;19925;-78
2021/09/17 09:03:34;;;;;;;;;;;;;;;18.65;100.00;98757.88;5075916;28;20019;-78
2021/09/17 09:06:13;;;;;;;;;;;;;;;18.07;100.00;98763.31;5075604;28;20317;-78
2021/09/17 09:08:41;;;;;;;;;;;;;;;18.42;100.00;98764.38;5107835;28;20632;-78
2021/09/17 09:11:19;;;;;;;;;;;;;;;18.30;100.00;98751.22;5075609;28;19928;-78
2021/09/17 09:14:03;;;;;;;;;;;;;;;18.69;100.00;98755.63;5074333;28;20013;-78
2021/09/17 09:16:31;;;;;;;;;;;;;;;18.98;100.00;98747.19;5074365;28;20018;-78
2021/09/17 09:19:14;;;;;;;;;;;;;;;19.08;100.00;98748.66;5075511;28;19924;-78
2021/09/17 09:21:43;;;;;;;;;;;;;;;19.38;100.00;98750.22;5075187;28;19931;-78
2021/09/17 09:24:14;;;;;;;;;;;;;;;19.23;100.00;98746.59;5107656;28;19935;-78
2021/09/17 09:26:41;;;;;;;;;;;;;;;19.25;100.00;98743.28;5074046;28;19952;-78
2021/09/17 09:29:25;;;;;;;;;;;;;;;19.43;100.00;98741.03;5075040;28;19958;-78
2021/09/17 09:31:52;;;;;;;;;;;;;;;19.51;100.00;98742.19;5073687;28;19925;-76
2021/09/17 09:34:21;;;;;;;;;;;;;;;19.17;100.00;98742.91;5052492;28;19925;-78
2021/09/17 09:36:48;;;;;;;;;;;;;;;18.89;100.00;98744.44;5079582;28;19979;-78
2021/09/17 09:39:15;;;;;;;;;;;;;;;19.70;100.00;98743.50;5053873;28;19925;-78
2021/09/17 09:41:42;;;;;;;;;;;;;;;19.90;100.00;98742.78;5089552;28;20028;-79
2021/09/17 09:44:17;;;;;;;;;;;;;;;19.63;100.00;98738.25;5073944;28;19934;-78
2021/09/17 09:46:45;;;;;;;;;;;;;;;19.52;100.00;98735.25;5074855;28;20020;-78
2021/09/17 09:49:25;;;;;;;;;;;;;;;19.58;100.00;98738.94;5090727;28;20267;-77
2021/09/17 09:51:57;;;;;;;;;;;;;;;19.70;100.00;98742.75;5050728;28;20559;-78
2021/09/17 09:54:26;;;;;;;;;;;;;;;20.01;100.00;98747.84;5049254;28;19929;-77
2021/09/17 09:56:54;;;;;;;;;;;;;;;19.85;100.00;98746.31;5049984;28;19924;-76
2021/09/17 09:59:27;;;;;;;;;;;;;;;19.58;100.00;98738.94;5050755;28;19935;-78
2021/09/17 10:01:56;;;;;;;;;;;;;;;19.97;100.00;98741.56;5077836;28;20020;-78
2021/09/17 10:04:24;;;;;;;;;;;;;;;19.70;100.00;98740.66;5082879;28;20365;-78
2021/09/17 10:06:59;;;;;;;;;;;;;;;18.88;100.00;98747.75;5050717;28;19925;-78
2021/09/17 10:09:26;;;;;;;;;;;;;;;19.53;100.00;98748.16;5056867;28;19928;-78
2021/09/17 10:11:53;;;;;;;;;;;;;;;19.69;100.00;98753.28;5055261;28;19925;-78
2021/09/17 10:14:20;;;;;;;;;;;;;;;19.46;100.00;98736.44;5092064;28;19933;-78
2021/09/17 10:16:48;;;;;;;;;;;;;;;19.64;100.00;98748.31;5051093;28;20368;-76
2021/09/17 10:19:18;;;;;;;;;;;;;;;19.40;100.00;98733.50;5037570;28;19940;-77
2021/09/17 10:21:45;;;;;;;;;;;;;;;19.41;100.00;98748.47;5050766;28;19931;-77
2021/09/17 10:24:27;;;;;;;;;;;;;;;19.07;100.00;98752.75;5049809;28;19929;-78
2021/09/17 10:26:54;;;;;;;;;;;;;;;19.56;100.00;98744.34;5050171;28;19925;-77
2021/09/17 10:29:31;;;;;;;;;;;;;;;19.09;100.00;98740.94;5049787;28;20383;-77
2021/09/17 10:32:00;;;;;;;;;;;;;;;19.34;100.00;98751.72;5049096;28;19924;-77
2021/09/17 10:34:36;;;;;;;;;;;;;;;19.48;100.00;98740.34;5050513;28;19924;-76
2021/09/17 10:37:04;;;;;;;;;;;;;;;19.56;100.00;98741.50;5059577;28;19929;-77
2021/09/17 10:39:32;;;;;;;;;;;;;;;19.44;100.00;98750.31;5055000;28;19929;-77
2021/09/17 10:42:12;;;;;;;;;;;;;;;19.67;100.00;98747.31;5061251;28;20256;-78
2021/09/17 10:44:58;;;;;;;;;;;;;;;19.61;100.00;98740.78;5010609;28;20003;-77
2021/09/17 10:47:41;;;;;;;;;;;;;;;19.29;100.00;98736.19;5048214;28;19924;-77
2021/09/17 10:50:09;;;;;;;;;;;;;;;18.64;100.00;98745.03;5031973;28;19974;-79
2021/09/17 10:52:42;;;;;;;;;;;;;;;19.32;100.00;98738.03;5033223;28;20015;-80
2021/09/17 10:55:28;;;;;;;;;;;;;;;19.72;100.00;98736.59;5050664;28;19971;-80
2021/09/17 10:58:14;;;;;;;;;;;;;;;20.07;100.00;98743.00;5048499;28;19925;-80
2021/09/17 11:00:51;;;;;;;;;;;;;;;19.85;100.00;98731.34;5054850;28;19931;-79
2021/09/17 11:03:39;;;;;;;;;;;;;;;20.13;100.00;98726.88;5049070;28;20067;-80
2021/09/17 11:06:19;;;;;;;;;;;;;;;20.10;100.00;98731.44;5050817;28;19925;-80
2021/09/17 11:08:46;;;;;;;;;;;;;;;19.96;100.00;98717.34;5051563;28;20430;-81
2021/09/17 11:11:22;;;;;;;;;;;;;;;19.59;100.00;98748.25;5059382;28;20287;-80
2021/09/17 11:13:50;;;;;;;;;;;;;;;20.32;100.00;98739.50;5050821;28;19925;-80
2021/09/17 11:16:18;;;;;;;;;;;;;;;20.44;100.00;98732.69;5050534;28;19925;-82
2021/09/17 11:18:52;;;;;;;;;;;;;;;20.17;100.00;98741.63;5037113;28;19924;-84
2021/09/17 11:21:19;;;;;;;;;;;;;;;20.17;100.00;98733.13;5033202;28;20381;-81
2021/09/17 11:23:49;;;;;;;;;;;;;;;20.39;100.00;98727.69;5050627;28;20379;-83
2021/09/17 11:26:20;;;;;;;;;;;;;;;20.54;100.00;98722.75;5050048;28;19946;-85
2021/09/17 11:29:08;;;;;;;;;;;;;;;20.98;100.00;98729.69;5033311;28;19929;-79
2021/09/17 11:31:36;;;;;;;;;;;;;;;21.05;100.00;98719.94;5028773;28;20028;-80
2021/09/17 11:34:05;;;;;;;;;;;;;;;20.48;100.00;98719.03;5049112;28;19929;-79
2021/09/17 11:36:36;;;;;;;;;;;;;;;20.84;100.00;98719.19;5048544;28;20411;-79
2021/09/17 11:39:15;;;;;;;;;;;;;;;21.23;100.00;98700.47;5056479;28;20360;-79
2021/09/17 11:41:43;;;;;;;;;;;;;;;21.09;100.00;98703.44;5066155;28;20432;-81
2021/09/17 11:44:10;;;;;;;;;;;;;;;21.34;100.00;98706.25;5063938;28;20286;-80
2021/09/17 11:46:37;;;;;;;;;;;;;;;21.20;100.00;98700.72;5073061;28;19928;-76
2021/09/17 11:49:05;;;;;;;;;;;;;;;21.18;100.00;98698.38;5073146;28;20294;-78
2021/09/17 11:51:33;;;;;;;;;;;;;;;21.24;100.00;98706.94;5039651;28;19932;-75
2021/09/17 11:54:00;;;;;;;;;;;;;;;21.10;100.00;98702.94;5068855;28;20657;-76
2021/09/17 11:56:27;;;;;;;;;;;;;;;19.73;100.00;98708.50;5070481;28;19924;-76
2021/09/17 11:58:54;;;;;;;;;;;;;;;20.62;100.00;98701.94;5069560;28;19924;-75
2021/09/17 12:01:22;;;;;;;;;;;;;;;20.75;100.00;98701.56;5049055;28;20299;-75
2021/09/17 12:03:51;;;;;;;;;;;;;;;20.51;100.00;98698.97;5055175;28;20008;-75
2021/09/17 12:06:18;;;;;;;;;;;;;;;20.63;100.00;98702.72;5061385;28;19960;-78
2021/09/17 12:08:45;;;;;;;;;;;;;;;20.99;100.00;98702.06;5069425;28;19975;-81
2021/09/17 12:11:18;;;;;;;;;;;;;;;20.86;100.00;98696.75;5056221;28;19925;-86
2021/09/17 12:13:56;;;;;;;;;;;;;;;21.27;100.00;98705.91;5047738;28;19931;-86
2021/09/17 12:16:26;;;;;;;;;;;;;;;21.86;100.00;98681.28;5060687;28;19925;-87
2021/09/17 12:19:05;;;;;;;;;;;;;;;21.49;100.00;98689.06;5032104;28;19925;-86
2021/09/17 12:26:32;;;;;;;;;;;;;;;20.03;100.00;98699.88;5028136;28;19928;-89
2021/09/17 12:29:05;;;;;;;;;;;;;;;21.01;100.00;98705.16;5077618;28;19929;-87
2021/09/17 12:31:35;;;;;;;;;;;;;;;21.54;100.00;98696.81;5067511;28;20498;-88
2021/09/17 12:34:31;;;;;;;;;;;;;;;21.60;100.00;98694.03;5034148;28;19983;-86
2021/09/17 12:36:58;;;;;;;;;;;;;;;21.61;100.00;98681.38;5048528;28;20288;-82
2021/09/17 12:39:26;;;;;;;;;;;;;;;21.74;100.00;98684.53;5039463;28;20023;-80
2021/09/17 12:42:07;;;;;;;;;;;;;;;21.88;100.00;98680.78;5073388;28;19924;-80
2021/09/17 12:44:38;;;;;;;;;;;;;;;21.21;100.00;98688.06;5072113;28;19924;-80
2021/09/17 12:47:05;;;;;;;;;;;;;;;21.22;100.00;98681.06;5106819;28;19968;-80
2021/09/17 12:49:33;;;;;;;;;;;;;;;21.62;100.00;98674.38;5072865;28;19974;-80